Time;durP1;ratioP1;P1;durP2;ratioP2;P2;SDS_P1;SDS_P2;PMS_P1;PMS_P2;Temp;Humidity;BMP_temperature;BMP_pressure;BME280_temperature;BME280_humidity;BME280_pressure;Samples;Min_cycle;Max_cycle;Signal;HPM_P1;HPM_P2
2023/07/10 00:01:02;;;;;;;4.00;3.50;;;;;;;14.91;56.50;100607.06;129481;1273;107267;-72
2023/07/10 00:04:18;;;;;;;4.80;3.00;;;;;;;14.90;56.62;100609.86;129424;1272;107606;-72
2023/07/10 00:07:24;;;;;;;3.20;2.80;;;;;;;14.90;56.66;100603.44;129401;1274;107488;-71
2023/07/10 00:10:31;;;;;;;4.20;3.20;;;;;;;14.93;56.59;100598.91;129377;1273;107527;-71
2023/07/10 00:13:36;;;;;;;3.80;3.20;;;;;;;14.92;56.70;100598.37;129484;1268;107656;-72
2023/07/10 00:16:42;;;;;;;4.60;3.20;;;;;;;14.90;56.77;100596.98;129470;1271;107483;-74
2023/07/10 00:19:47;;;;;;;3.80;2.90;;;;;;;14.91;56.80;100602.34;129275;1268;107653;-73
2023/07/10 00:22:53;;;;;;;3.90;3.50;;;;;;;14.90;57.08;100595.45;129395;1267;107293;-72
2023/07/10 00:25:58;;;;;;;5.00;3.20;;;;;;;14.88;57.15;100594.90;129372;1268;107328;-72
2023/07/10 00:29:15;;;;;;;4.90;3.40;;;;;;;14.82;57.36;100594.58;129378;1272;105933;-72
2023/07/10 00:32:21;;;;;;;4.50;3.50;;;;;;;14.77;57.36;100593.17;129378;1270;107443;-73
2023/07/10 00:35:28;;;;;;;4.10;3.40;;;;;;;14.73;57.37;100595.12;129376;1268;107568;-72
2023/07/10 00:38:34;;;;;;;5.60;3.60;;;;;;;14.65;57.73;100594.78;129246;1268;107143;-72
2023/07/10 00:41:41;;;;;;;5.00;3.40;;;;;;;14.55;57.98;100592.08;129184;1267;346342;-72
2023/07/10 00:44:51;;;;;;;4.50;3.70;;;;;;;14.48;57.86;100592.20;129494;1268;107424;-72
2023/07/10 00:48:11;;;;;;;4.00;3.30;;;;;;;14.39;58.24;100600.36;129387;1273;107450;-75
2023/07/10 00:51:23;;;;;;;5.30;3.30;;;;;;;14.28;58.30;100598.09;129451;1268;106711;-75
2023/07/10 00:54:29;;;;;;;;;;;;;;;14.20;58.51;100602.48;129498;1272;107291;-73
2023/07/10 00:57:38;;;;;;;5.30;3.10;;;;;;;14.20;58.67;100607.27;129312;1270;107421;-72
2023/07/10 01:01:00;;;;;;;4.00;3.40;;;;;;;14.14;58.70;100609.67;129454;1268;107247;-73
2023/07/10 01:04:06;;;;;;;4.30;3.50;;;;;;;14.06;58.60;100609.80;129257;1270;108006;-74
2023/07/10 01:07:16;;;;;;;4.60;3.60;;;;;;;13.94;59.15;100610.10;129230;1272;107563;-73
2023/07/10 01:10:22;;;;;;;4.10;3.40;;;;;;;13.81;59.33;100612.55;129177;1268;107723;-73
2023/07/10 01:13:28;;;;;;;3.90;3.40;;;;;;;13.66;59.91;100612.19;129250;1276;107422;-73
2023/07/10 01:16:33;;;;;;;4.30;3.60;;;;;;;13.50;59.99;100616.41;129396;1270;107604;-72
2023/07/10 01:19:40;;;;;;;3.80;3.40;;;;;;;13.34;60.16;100614.88;129471;1273;107466;-72
2023/07/10 01:22:46;;;;;;;4.70;3.70;;;;;;;13.16;60.50;100608.19;129185;1268;108152;-73
2023/07/10 01:25:58;;;;;;;4.50;3.60;;;;;;;13.08;60.58;100606.36;129376;1273;107504;-73
2023/07/10 01:29:04;;;;;;;3.70;3.10;;;;;;;13.14;60.92;100604.05;129490;1273;107596;-73
2023/07/10 01:32:12;;;;;;;4.30;3.70;;;;;;;13.13;60.69;100598.50;129452;1267;106974;-74
2023/07/10 01:35:19;;;;;;;4.20;3.40;;;;;;;13.08;60.89;100598.11;129544;1267;107378;-72
2023/07/10 01:38:31;;;;;;;4.20;3.80;;;;;;;13.03;61.23;100593.60;129533;1273;106751;-73
2023/07/10 01:41:39;;;;;;;4.30;3.70;;;;;;;13.03;61.32;100591.99;129415;1276;108698;-73
2023/07/10 01:44:47;;;;;;;4.80;3.90;;;;;;;13.02;61.39;100588.45;129325;1268;107655;-72
2023/07/10 01:47:53;;;;;;;4.90;3.80;;;;;;;12.89;61.71;100586.31;129325;1273;107295;-73
2023/07/10 01:51:00;;;;;;;4.20;3.80;;;;;;;12.82;61.69;100585.23;129221;1273;107521;-73
2023/07/10 01:54:11;;;;;;;3.80;3.30;;;;;;;12.82;61.71;100586.23;129285;1267;105921;-73
2023/07/10 01:57:18;;;;;;;4.90;3.20;;;;;;;12.74;62.05;100586.41;129343;1268;107601;-72
2023/07/10 02:00:23;;;;;;;4.40;3.70;;;;;;;12.70;62.28;100581.46;129212;1268;107666;-72
2023/07/10 02:03:30;;;;;;;3.90;3.50;;;;;;;12.63;62.36;100574.36;129452;1273;107517;-73
2023/07/10 02:06:37;;;;;;;4.80;3.80;;;;;;;12.60;62.77;100573.80;129380;1268;107301;-72
2023/07/10 02:09:43;;;;;;;3.90;3.50;;;;;;;12.61;62.62;100570.90;129429;1273;107513;-72
2023/07/10 02:12:48;;;;;;;5.10;3.90;;;;;;;12.62;62.74;100567.76;129078;1270;107447;-73
2023/07/10 02:15:56;;;;;;;4.80;3.90;;;;;;;12.61;62.91;100560.83;129305;1267;107761;-74
2023/07/10 02:19:04;;;;;;;5.70;3.80;;;;;;;12.53;63.29;100551.34;129596;1273;107449;-72
2023/07/10 02:22:09;;;;;;;4.60;3.40;;;;;;;12.50;63.25;100554.78;129363;1274;107258;-72
2023/07/10 02:25:14;;;;;;;3.90;3.10;;;;;;;12.57;63.27;100550.92;129267;1267;107555;-73
2023/07/10 02:28:20;;;;;;;4.10;3.50;;;;;;;12.65;63.12;100548.66;129225;1273;107575;-73
2023/07/10 02:31:26;;;;;;;3.70;3.30;;;;;;;12.74;63.16;100552.39;129535;1268;106577;-76
2023/07/10 02:34:32;;;;;;;4.80;3.60;;;;;;;12.78;63.24;100550.36;129539;1267;107206;-74
2023/07/10 02:37:37;;;;;;;4.70;3.80;;;;;;;12.79;63.30;100552.36;129366;1268;109317;-76
2023/07/10 02:40:43;;;;;;;5.20;3.20;;;;;;;12.74;63.16;100553.02;129494;1272;107567;-75
2023/07/10 02:43:49;;;;;;;4.10;3.50;;;;;;;12.76;63.44;100550.00;129567;1273;107455;-73
2023/07/10 02:46:54;;;;;;;7.90;4.00;;;;;;;12.79;63.38;100546.16;130486;1270;107731;-73
2023/07/10 02:50:00;;;;;;;5.30;4.10;;;;;;;12.74;63.78;100547.48;129500;1273;107546;-72
2023/07/10 02:53:07;;;;;;;4.40;3.60;;;;;;;12.72;63.85;100549.16;129416;1273;107590;-73
2023/07/10 02:56:13;;;;;;;3.90;3.40;;;;;;;12.70;63.87;100546.52;129398;1273;107538;-75
2023/07/10 02:59:18;;;;;;;5.00;3.50;;;;;;;12.65;63.97;100547.14;129210;1268;106962;-73
2023/07/10 03:02:24;;;;;;;5.10;3.50;;;;;;;12.59;64.14;100552.30;129435;1273;108711;-73
2023/07/10 03:05:29;;;;;;;4.70;3.80;;;;;;;12.69;64.65;100549.16;129264;1274;107383;-74
2023/07/10 03:08:35;;;;;;;4.80;3.50;;;;;;;12.86;64.37;100550.34;129420;1273;109129;-72
2023/07/10 03:11:40;;;;;;;4.30;3.60;;;;;;;12.93;64.52;100558.38;129297;1273;107492;-73
2023/07/10 03:14:46;;;;;;;4.30;3.40;;;;;;;13.03;64.52;100565.21;129117;1276;107564;-73
2023/07/10 03:17:51;;;;;;;4.70;3.50;;;;;;;13.18;64.40;100569.35;129382;1273;107511;-74
2023/07/10 03:20:57;;;;;;;4.50;3.30;;;;;;;13.26;64.62;100568.87;129154;1273;106270;-73
2023/07/10 03:24:04;;;;;;;4.10;3.50;;;;;;;13.53;64.75;100565.33;129135;1268;107289;-72
2023/07/10 03:27:09;;;;;;;3.60;3.20;;;;;;;13.86;64.52;100564.11;129207;1268;107576;-73
2023/07/10 03:30:15;;;;;;;4.10;3.30;;;;;;;14.22;64.40;100562.16;129247;1273;107186;-74
2023/07/10 03:33:21;;;;;;;4.10;3.40;;;;;;;14.60;64.48;100560.64;129341;1270;107620;-73
2023/07/10 03:36:28;;;;;;;3.50;3.10;;;;;;;14.90;64.34;100564.11;129192;1272;107449;-72
2023/07/10 03:39:35;;;;;;;4.30;3.50;;;;;;;15.23;64.26;100569.98;129279;1268;105799;-74
2023/07/10 03:42:40;;;;;;;3.90;3.20;;;;;;;15.60;64.15;100561.84;129173;1273;106743;-73
2023/07/10 03:45:45;;;;;;;4.60;3.70;;;;;;;15.92;63.96;100566.54;129228;1268;107472;-72
2023/07/10 03:48:51;;;;;;;3.60;3.00;;;;;;;16.19;63.90;100563.10;129099;1268;107453;-74
2023/07/10 03:51:58;;;;;;;3.80;3.10;;;;;;;16.47;63.91;100563.28;129264;1273;107566;-74
2023/07/10 03:55:05;;;;;;;3.80;3.30;;;;;;;16.69;63.80;100567.25;129241;1273;107241;-73
2023/07/10 03:58:21;;;;;;;3.60;3.30;;;;;;;16.93;63.66;100571.27;129315;1272;107618;-72
2023/07/10 04:01:27;;;;;;;3.70;3.40;;;;;;;17.12;63.72;100569.24;129389;1272;107503;-72
2023/07/10 04:04:33;;;;;;;3.30;3.00;;;;;;;17.34;63.72;100580.95;129368;1273;107591;-73
2023/07/10 04:07:38;;;;;;;10.00;3.30;;;;;;;17.47;63.78;100587.73;129401;1273;107591;-73
2023/07/10 04:10:50;;;;;;;3.90;2.90;;;;;;;17.61;63.74;100590.64;129347;1273;107498;-72
2023/07/10 04:13:56;;;;;;;3.80;3.10;;;;;;;17.68;63.87;100582.31;129396;1273;107437;-73
2023/07/10 04:17:02;;;;;;;3.30;3.00;;;;;;;17.73;64.07;100572.50;129279;1273;107542;-73
2023/07/10 04:20:09;;;;;;;3.00;2.70;;;;;;;17.73;63.99;100576.89;129189;1268;107567;-72
2023/07/10 04:23:18;;;;;;;4.10;3.30;;;;;;;17.74;64.10;100573.70;129420;1272;107481;-72
2023/07/10 04:26:26;;;;;;;3.60;3.20;;;;;;;17.76;64.13;100574.81;129413;1274;107367;-72
2023/07/10 04:29:31;;;;;;;3.50;3.10;;;;;;;17.76;64.47;100577.08;129211;1271;107658;-72
2023/07/10 04:32:37;;;;;;;3.90;3.20;;;;;;;17.89;64.29;100571.55;129343;1268;109315;-72
2023/07/10 04:35:43;;;;;;;4.40;3.40;;;;;;;18.14;64.36;100573.14;129478;1277;107467;-72
2023/07/10 04:38:50;;;;;;;3.40;3.10;;;;;;;18.40;64.28;100570.27;129524;1272;106003;-72
2023/07/10 04:41:55;;;;;;;3.70;3.30;;;;;;;18.60;64.22;100566.34;129479;1274;107663;-74
2023/07/10 04:45:01;;;;;;;3.40;3.10;;;;;;;18.75;64.11;100565.45;129366;1272;107552;-72
2023/07/10 04:48:07;;;;;;;5.20;3.30;;;;;;;18.95;64.08;100566.06;129502;1273;106749;-74
2023/07/10 04:51:14;;;;;;;3.80;2.80;;;;;;;19.15;64.20;100565.39;129631;1273;107544;-75
2023/07/10 04:54:20;;;;;;;3.50;3.20;;;;;;;19.35;64.11;100563.14;129510;1273;107601;-73
2023/07/10 04:57:25;;;;;;;5.20;3.60;;;;;;;19.51;64.10;100566.11;129509;1272;107579;-73
2023/07/10 05:00:31;;;;;;;5.60;3.90;;;;;;;19.62;63.76;100566.50;129502;1269;107883;-73
2023/07/10 05:03:37;;;;;;;5.00;3.20;;;;;;;19.74;63.55;100562.09;129268;1272;107569;-73
2023/07/10 05:06:42;;;;;;;5.20;3.70;;;;;;;19.91;63.12;100566.63;129214;1272;105736;-73
2023/07/10 05:09:48;;;;;;;4.10;3.30;;;;;;;20.02;63.08;100565.18;129300;1274;106569;-76
2023/07/10 05:12:53;;;;;;;3.90;2.90;;;;;;;20.14;62.89;100563.98;129314;1277;107525;-74
2023/07/10 05:16:00;;;;;;;3.70;3.00;;;;;;;20.28;62.54;100562.66;129360;1267;107301;-74
2023/07/10 05:19:06;;;;;;;3.50;3.20;;;;;;;20.40;62.27;100560.04;129233;1273;107576;-73
2023/07/10 05:22:11;;;;;;;4.60;3.20;;;;;;;20.55;61.99;100556.21;129392;1274;107650;-73
2023/07/10 05:25:18;;;;;;;3.60;3.00;;;;;;;20.69;61.87;100555.67;129471;1281;107555;-74
2023/07/10 05:28:23;;;;;;;3.60;3.20;;;;;;;20.84;61.60;100555.73;129501;1273;107429;-74
2023/07/10 05:31:29;;;;;;;4.70;3.00;;;;;;;21.03;61.46;100556.06;129469;1272;107572;-75
2023/07/10 05:34:35;;;;;;;4.90;3.10;;;;;;;21.23;61.06;100559.77;129407;1267;107575;-74
2023/07/10 05:37:40;;;;;;;4.60;3.20;;;;;;;21.49;60.84;100559.55;129568;1267;107267;-74
2023/07/10 05:40:46;;;;;;;3.90;2.70;;;;;;;21.67;60.39;100563.92;129456;1268;106632;-75
2023/07/10 05:43:51;;;;;;;5.60;3.00;;;;;;;21.76;60.12;100557.00;129469;1273;107588;-77
2023/07/10 05:46:57;;;;;;;3.70;3.00;;;;;;;21.77;59.90;100554.32;129475;1273;107449;-74
2023/07/10 05:50:03;;;;;;;3.30;2.90;;;;;;;21.92;59.79;100549.70;129458;1272;107332;-74
2023/07/10 05:53:14;;;;;;;3.50;2.90;;;;;;;22.04;59.68;100543.45;129371;1273;107608;-74
2023/07/10 05:56:22;;;;;;;3.20;2.80;;;;;;;22.13;59.15;100537.41;129468;1273;107584;-73
2023/07/10 05:59:28;;;;;;;4.70;3.30;;;;;;;22.15;59.18;100536.41;129436;1267;106679;-73
2023/07/10 06:02:34;;;;;;;3.60;3.00;;;;;;;22.14;59.00;100535.39;129394;1273;105916;-73
2023/07/10 06:05:40;;;;;;;3.70;2.60;;;;;;;22.15;58.84;100539.68;129443;1273;107554;-76
2023/07/10 06:08:46;;;;;;;3.90;2.90;;;;;;;22.21;58.29;100543.10;129263;1281;107417;-73
2023/07/10 06:11:51;;;;;;;8.80;3.60;;;;;;;22.12;57.94;100545.31;129403;1273;107557;-73
2023/07/10 06:14:56;;;;;;;6.00;3.40;;;;;;;21.98;57.80;100553.21;129484;1273;107598;-73
2023/07/10 06:18:02;;;;;;;6.20;3.30;;;;;;;21.92;57.77;100553.50;129478;1273;107578;-73
2023/07/10 06:21:09;;;;;;;4.70;4.00;;;;;;;21.92;58.08;100554.42;129431;1273;107563;-73
2023/07/10 06:24:14;;;;;;;8.50;4.10;;;;;;;21.97;57.22;100553.13;129418;1272;107482;-73
2023/07/10 06:27:20;;;;;;;6.90;3.70;;;;;;;21.90;57.09;100554.06;129331;1272;107578;-73
2023/07/10 06:30:25;;;;;;;4.00;3.10;;;;;;;21.85;57.34;100555.89;129396;1274;108027;-73
2023/07/10 06:33:32;;;;;;;3.60;3.20;;;;;;;21.93;57.57;100555.66;129464;1273;107586;-73
2023/07/10 06:36:37;;;;;;;7.60;4.50;;;;;;;21.99;57.36;100561.02;129507;1273;107597;-73
2023/07/10 06:39:42;;;;;;;7.60;4.70;;;;;;;22.01;56.97;100559.33;129400;1273;107408;-73
2023/07/10 06:42:48;;;;;;;6.80;3.50;;;;;;;22.00;56.69;100565.15;129444;1274;108825;-76
2023/07/10 06:45:56;;;;;;;11.10;3.80;;;;;;;22.03;56.93;100564.67;129344;1268;107251;-75
2023/07/10 06:49:02;;;;;;;4.20;3.20;;;;;;;22.10;56.97;100560.30;129522;1273;107446;-73
2023/07/10 06:52:08;;;;;;;4.90;3.10;;;;;;;22.21;56.69;100557.30;129478;1274;107610;-74
2023/07/10 06:55:16;;;;;;;6.50;3.50;;;;;;;22.33;56.55;100555.95;129453;1272;107438;-73
2023/07/10 06:58:21;;;;;;;7.80;3.70;;;;;;;22.41;56.08;100553.58;129380;1272;107610;-73
2023/07/10 07:01:27;;;;;;;6.60;3.50;;;;;;;22.45;55.87;100550.66;129675;1272;105764;-74
2023/07/10 07:04:33;;;;;;;4.80;3.10;;;;;;;22.48;55.55;100551.03;129466;1273;106473;-73
2023/07/10 07:07:39;;;;;;;5.30;3.50;;;;;;;22.54;55.65;100551.88;129486;1273;106721;-73
2023/07/10 07:10:45;;;;;;;5.50;3.60;;;;;;;22.63;54.85;100553.81;129419;1273;107616;-73
2023/07/10 07:13:51;;;;;;;4.70;3.60;;;;;;;22.70;54.25;100549.20;129595;1281;107574;-73
2023/07/10 07:16:56;;;;;;;3.80;2.90;;;;;;;22.76;54.49;100543.75;129399;1273;107623;-74
2023/07/10 07:20:02;;;;;;;5.10;2.90;;;;;;;22.86;53.82;100539.12;129507;1268;107553;-73
2023/07/10 07:23:07;;;;;;;4.30;2.60;;;;;;;22.94;52.76;100534.33;129492;1284;107563;-73
2023/07/10 07:26:14;;;;;;;3.20;2.70;;;;;;;23.02;52.86;100532.61;129316;1272;107568;-73
2023/07/10 07:29:19;;;;;;;4.90;3.30;;;;;;;23.11;52.17;100531.21;129118;1273;108679;-72
2023/07/10 07:32:25;;;;;;;6.30;3.50;;;;;;;23.21;52.62;100525.60;129424;1273;107574;-73
2023/07/10 07:35:32;;;;;;;3.80;2.90;;;;;;;23.29;51.83;100528.39;129441;1273;107491;-73
2023/07/10 07:38:37;;;;;;;2.60;2.40;;;;;;;23.41;50.88;100526.41;129340;1274;107440;-72
2023/07/10 07:41:42;;;;;;;2.80;2.40;;;;;;;23.53;50.23;100527.11;129278;1273;107571;-72
2023/07/10 07:44:48;;;;;;;2.70;2.50;;;;;;;23.66;49.45;100521.61;129392;1273;107582;-72
2023/07/10 07:47:54;;;;;;;2.20;2.00;;;;;;;23.76;48.11;100524.39;129453;1273;107576;-72
2023/07/10 07:51:04;;;;;;;3.50;2.00;;;;;;;23.74;45.90;100525.98;129215;1273;107512;-74
2023/07/10 07:54:13;;;;;;;2.20;1.90;;;;;;;23.74;48.05;100519.81;129189;1273;107382;-73
2023/07/10 07:57:22;;;;;;;2.60;1.90;;;;;;;23.85;45.70;100523.11;129165;1273;107407;-73
2023/07/10 08:00:27;;;;;;;1.90;1.70;;;;;;;23.92;45.76;100522.70;129366;1273;107628;-72
2023/07/10 08:03:34;;;;;;;3.30;2.60;;;;;;;24.00;44.60;100521.05;129407;1281;107587;-73
2023/07/10 08:06:40;;;;;;;2.70;2.10;;;;;;;24.04;46.27;100509.84;129257;1272;107398;-73
2023/07/10 08:09:45;;;;;;;4.80;2.30;;;;;;;24.10;45.79;100509.59;129294;1275;107401;-73
2023/07/10 08:12:51;;;;;;;3.40;2.90;;;;;;;24.22;45.77;100508.09;129373;1281;107252;-73
2023/07/10 08:15:56;;;;;;;2.70;2.50;;;;;;;24.35;45.62;100500.94;129271;1268;107579;-73
2023/07/10 08:19:02;;;;;;;3.90;2.70;;;;;;;24.38;46.33;100500.92;129129;1273;107575;-73
2023/07/10 08:22:08;;;;;;;2.70;2.00;;;;;;;24.41;46.82;100498.30;129385;1274;107300;-73
2023/07/10 08:25:13;;;;;;;2.00;1.80;;;;;;;24.49;44.61;100497.40;129401;1269;107566;-73
2023/07/10 08:28:19;;;;;;;2.00;1.80;;;;;;;24.55;43.97;100494.88;129356;1270;107587;-73
2023/07/10 08:31:25;;;;;;;2.00;1.80;;;;;;;24.62;44.30;100495.19;129250;1281;107591;-73
2023/07/10 08:34:32;;;;;;;2.00;1.70;;;;;;;24.75;44.77;100491.63;129469;1273;107570;-73
2023/07/10 08:37:38;;;;;;;3.40;1.80;;;;;;;24.84;45.22;100493.80;129482;1267;106680;-73
2023/07/10 08:40:44;;;;;;;2.60;2.20;;;;;;;24.91;45.28;100494.69;129304;1273;107322;-73
2023/07/10 08:43:50;;;;;;;2.30;1.90;;;;;;;24.96;43.68;100497.48;129219;1273;107444;-73
2023/07/10 08:46:56;;;;;;;2.10;1.90;;;;;;;25.08;43.87;100497.70;129097;1273;107572;-73
2023/07/10 08:50:07;;;;;;;2.70;2.30;;;;;;;25.19;42.95;100496.48;129282;1274;107656;-73
2023/07/10 08:53:17;;;;;;;2.00;1.80;;;;;;;25.26;43.47;100501.27;129261;1273;107497;-73
2023/07/10 08:56:33;;;;;;;2.60;2.00;;;;;;;25.32;44.52;100499.16;129305;1280;107438;-73
2023/07/10 08:59:44;;;;;;;4.20;1.90;;;;;;;25.37;43.56;100492.80;129253;1283;107290;-73
2023/07/10 09:02:53;;;;;;;;;;;;;;;25.45;42.47;100496.89;129233;1272;107378;-73
2023/07/10 09:06:03;;;;;;;2.00;1.60;;;;;;;25.49;42.31;100496.41;129288;1272;106172;-74
2023/07/10 09:09:31;;;;;;;1.90;1.70;;;;;;;25.44;42.20;100494.25;129319;1272;107681;-73
2023/07/10 09:12:41;;;;;;;2.20;1.90;;;;;;;25.47;40.79;100498.95;129496;1269;107253;-74
2023/07/10 09:15:55;;;;;;;4.50;1.90;;;;;;;25.55;41.91;100494.65;129456;1272;106326;-73
2023/07/10 09:19:07;;;;;;;2.30;1.90;;;;;;;25.71;41.99;100489.19;129497;1270;107597;-73
2023/07/10 09:22:13;;;;;;;2.40;2.20;;;;;;;25.90;42.25;100484.92;129435;1269;106203;-73
2023/07/10 09:25:20;;;;;;;1.90;1.80;;;;;;;26.08;41.06;100485.04;129413;1282;107506;-73
2023/07/10 09:28:26;;;;;;;2.40;2.00;;;;;;;26.28;41.69;100473.19;129400;1273;106764;-73
2023/07/10 09:31:43;;;;;;;2.00;1.80;;;;;;;26.37;41.53;100459.80;129324;1274;107516;-73
2023/07/10 09:34:51;;;;;;;3.00;1.90;;;;;;;26.35;40.67;100465.20;129229;1272;107599;-73
2023/07/10 09:37:56;;;;;;;2.30;2.10;;;;;;;26.23;39.30;100463.28;129287;1272;107539;-74
2023/07/10 09:41:13;;;;;;;2.40;2.00;;;;;;;26.29;39.30;100465.00;129386;1272;107485;-73
2023/07/10 09:44:20;;;;;;;2.60;2.10;;;;;;;26.39;39.63;100466.01;129292;1273;107407;-73
2023/07/10 09:47:37;;;;;;;3.60;2.00;;;;;;;26.40;39.56;100460.17;129289;1270;107643;-74
2023/07/10 09:50:49;;;;;;;2.20;2.00;;;;;;;26.41;40.04;100458.20;129244;1270;108197;-74
2023/07/10 09:54:03;;;;;;;2.40;2.10;;;;;;;26.37;39.62;100456.56;129352;1281;107424;-73
2023/07/10 09:57:16;;;;;;;2.20;2.00;;;;;;;26.40;39.19;100459.63;129286;1282;107626;-73
2023/07/10 10:00:23;;;;;;;2.70;2.10;;;;;;;26.42;39.89;100460.52;129373;1273;107554;-73
2023/07/10 10:03:32;;;;;;;2.50;2.10;;;;;;;26.45;39.65;100461.49;129192;1275;107534;-73
2023/07/10 10:06:42;;;;;;;2.10;1.80;;;;;;;26.45;38.95;100463.80;129142;1273;106751;-73
2023/07/10 10:10:01;;;;;;;2.30;1.90;;;;;;;26.46;39.43;100460.20;129356;1274;109182;-78
2023/07/10 10:13:17;;;;;;;2.30;2.10;;;;;;;26.49;38.21;100460.88;129160;1274;107386;-74
2023/07/10 10:16:31;;;;;;;2.30;1.90;;;;;;;26.38;36.63;100459.38;129343;1268;108121;-74
2023/07/10 10:19:42;;;;;;;3.00;2.20;;;;;;;26.51;37.84;100453.84;129309;1274;107185;-75
2023/07/10 10:22:49;;;;;;;2.10;1.90;;;;;;;26.73;37.92;100445.02;129471;1277;107727;-73
2023/07/10 10:25:59;;;;;;;3.30;2.20;;;;;;;26.87;36.60;100451.14;129394;1273;107576;-73
2023/07/10 10:29:25;;;;;;;2.60;1.90;;;;;;;26.96;37.10;100446.23;129196;1272;107641;-73
2023/07/10 10:32:43;;;;;;;2.40;2.00;;;;;;;27.06;37.60;100435.02;129293;1272;107566;-73
2023/07/10 10:35:56;;;;;;;3.00;2.00;;;;;;;27.18;36.92;100437.16;129382;1280;107575;-74
2023/07/10 10:39:10;;;;;;;2.10;1.90;;;;;;;27.32;37.75;100433.05;129437;1281;107442;-73
2023/07/10 10:42:29;;;;;;;2.00;1.60;;;;;;;27.44;36.74;100436.45;129397;1281;107603;-74
2023/07/10 10:45:43;;;;;;;3.10;2.00;;;;;;;27.51;36.89;100437.20;129276;1280;107563;-74
2023/07/10 10:48:57;;;;;;;2.10;1.90;;;;;;;27.55;36.26;100431.05;129532;1270;107774;-75
2023/07/10 10:52:12;;;;;;;2.30;1.90;;;;;;;27.68;37.23;100421.50;129490;1281;107555;-73
2023/07/10 10:55:31;;;;;;;2.10;1.80;;;;;;;27.89;37.25;100417.39;129377;1273;107549;-74
2023/07/10 10:58:49;;;;;;;2.00;1.60;;;;;;;28.09;37.04;100407.75;129325;1270;107334;-74
2023/07/10 11:02:02;;;;;;;2.20;2.00;;;;;;;28.29;36.81;100401.83;129413;1273;107444;-74
2023/07/10 11:05:17;;;;;;;1.80;1.70;;;;;;;28.35;36.61;100400.80;129359;1270;109314;-74
2023/07/10 11:08:27;;;;;;;1.90;1.80;;;;;;;28.40;35.82;100399.89;129379;1273;107476;-74
2023/07/10 11:11:37;;;;;;;1.70;1.60;;;;;;;28.56;36.35;100399.97;129206;1281;107427;-74
2023/07/10 11:14:45;;;;;;;2.00;1.70;;;;;;;28.74;35.99;100397.66;129301;1274;107872;-74
2023/07/10 11:17:53;;;;;;;1.80;1.70;;;;;;;28.85;35.76;100396.59;129446;1273;107438;-76
2023/07/10 11:21:01;;;;;;;2.80;1.70;;;;;;;29.02;34.71;100393.65;129391;1272;106249;-76
2023/07/10 11:24:28;;;;;;;2.10;1.80;;;;;;;29.12;35.20;100393.85;129375;1273;107436;-73
2023/07/10 11:27:37;;;;;;;1.80;1.70;;;;;;;29.25;33.94;100389.75;129472;1281;107396;-74
2023/07/10 11:30:43;;;;;;;2.40;2.00;;;;;;;29.32;33.72;100378.48;129204;1273;107469;-73
2023/07/10 11:33:54;;;;;;;2.80;1.70;;;;;;;29.23;33.30;100373.77;129422;1273;106026;-75
2023/07/10 11:36:59;;;;;;;1.70;1.60;;;;;;;29.23;33.91;100371.35;129489;1270;107674;-74
2023/07/10 11:40:37;;;;;;;2.00;1.80;;;;;;;29.24;32.25;100372.05;129340;1274;107498;-75
2023/07/10 11:43:57;;;;;;;1.90;1.70;;;;;;;29.10;33.04;100366.48;129358;1272;106632;-74
2023/07/10 11:47:18;;;;;;;1.90;1.70;;;;;;;29.12;32.73;100368.58;129331;1274;107618;-74
2023/07/10 11:50:28;;;;;;;2.00;1.60;;;;;;;29.18;33.40;100362.88;129252;1271;106733;-74
2023/07/10 11:53:33;;;;;;;1.90;1.60;;;;;;;29.16;32.58;100360.89;129317;1273;106730;-74
2023/07/10 11:56:49;;;;;;;3.80;2.10;;;;;;;29.03;32.20;100349.76;129326;1270;107659;-73
2023/07/10 11:59:56;;;;;;;2.20;1.80;;;;;;;29.02;32.49;100347.61;129329;1274;107578;-74
2023/07/10 12:03:04;;;;;;;1.80;1.60;;;;;;;29.04;32.36;100345.91;129364;1273;107577;-74
2023/07/10 12:06:18;;;;;;;2.00;1.80;;;;;;;29.04;32.18;100340.92;129541;1274;107530;-74
2023/07/10 12:09:23;;;;;;;2.10;1.70;;;;;;;29.02;32.94;100335.48;129515;1270;107308;-73
2023/07/10 12:12:34;;;;;;;1.60;1.50;;;;;;;29.09;32.34;100324.66;129346;1272;107620;-74
2023/07/10 12:15:41;;;;;;;1.90;1.80;;;;;;;29.09;32.21;100327.23;129217;1269;105745;-74
2023/07/10 12:18:46;;;;;;;1.60;1.50;;;;;;;29.10;32.30;100330.69;129506;1273;107909;-74
2023/07/10 12:21:52;;;;;;;1.70;1.60;;;;;;;29.07;32.70;100326.57;129360;1273;107663;-75
2023/07/10 12:25:00;;;;;;;2.30;1.70;;;;;;;29.05;32.42;100324.98;129212;1270;108153;-75
2023/07/10 12:28:13;;;;;;;2.40;1.90;;;;;;;29.05;32.35;100318.17;129266;1273;107516;-75
2023/07/10 12:31:19;;;;;;;1.80;1.70;;;;;;;29.04;32.23;100317.45;129374;1273;107735;-75
2023/07/10 12:34:28;;;;;;;1.90;1.70;;;;;;;29.01;32.40;100313.82;129232;1280;107554;-75
2023/07/10 12:37:34;;;;;;;2.40;2.10;;;;;;;28.90;32.27;100312.89;129384;1267;107295;-75
2023/07/10 12:40:41;;;;;;;2.80;1.90;;;;;;;28.84;32.42;100310.58;129122;1270;189673;-73
2023/07/10 12:43:52;;;;;;;2.10;1.90;;;;;;;28.80;31.92;100307.33;129394;1281;106816;-73
2023/07/10 12:47:08;;;;;;;2.20;1.70;;;;;;;28.69;32.45;100300.18;129457;1274;107976;-73
2023/07/10 12:50:14;;;;;;;2.70;1.90;;;;;;;28.80;32.93;100292.29;129456;1269;107580;-74
2023/07/10 12:53:24;;;;;;;1.80;1.70;;;;;;;28.95;32.88;100293.17;129489;1273;107483;-72
2023/07/10 12:56:34;;;;;;;2.00;1.80;;;;;;;28.99;32.70;100296.85;129353;1277;107485;-73
2023/07/10 12:59:40;;;;;;;2.00;1.70;;;;;;;29.05;32.80;100293.45;129268;1273;107555;-73
2023/07/10 13:02:51;;;;;;;2.00;1.80;;;;;;;29.10;32.70;100286.41;129355;1274;107401;-73
2023/07/10 13:05:58;;;;;;;;;;;;;;;29.17;32.90;100283.52;129205;1267;107919;-75
2023/07/10 13:09:06;;;;;;;2.10;1.90;;;;;;;29.26;32.93;100280.09;129162;1273;107520;-74
2023/07/10 13:12:22;;;;;;;2.30;1.90;;;;;;;29.32;32.52;100275.31;129418;1273;107634;-72
2023/07/10 13:15:35;;;;;;;1.80;1.70;;;;;;;29.20;32.91;100267.04;129462;1274;109129;-72
2023/07/10 13:18:41;;;;;;;2.20;1.80;;;;;;;29.19;33.16;100264.73;129181;1272;107576;-73
2023/07/10 13:21:46;;;;;;;2.10;1.90;;;;;;;29.19;32.72;100259.50;129362;1268;107530;-72
2023/07/10 13:24:52;;;;;;;3.40;1.90;;;;;;;29.15;32.93;100264.18;129395;1267;105874;-76
2023/07/10 13:27:58;;;;;;;2.40;1.80;;;;;;;29.16;32.59;100266.10;129430;1270;108379;-73
2023/07/10 13:31:03;;;;;;;2.80;1.90;;;;;;;29.11;32.75;100261.04;129201;1273;107472;-73
2023/07/10 13:34:11;;;;;;;2.00;1.80;;;;;;;29.01;32.90;100253.51;129218;1268;107294;-72
2023/07/10 13:37:27;;;;;;;3.80;2.00;;;;;;;28.95;32.62;100247.95;129389;1271;107399;-74
2023/07/10 13:40:33;;;;;;;1.80;1.60;;;;;;;28.77;32.60;100246.38;129492;1270;108382;-72
2023/07/10 13:43:38;;;;;;;2.90;2.10;;;;;;;28.61;33.05;100244.92;129457;1270;108037;-72
2023/07/10 13:46:43;;;;;;;3.60;1.60;;;;;;;28.54;32.94;100245.54;129460;1268;107449;-72
2023/07/10 13:49:50;;;;;;;2.50;2.00;;;;;;;28.57;32.96;100244.05;129606;1271;107402;-72
2023/07/10 13:52:55;;;;;;;2.90;2.00;;;;;;;28.59;33.18;100238.67;129445;1272;108174;-72
2023/07/10 13:56:01;;;;;;;2.30;1.90;;;;;;;28.56;33.03;100236.81;129424;1270;108209;-72
2023/07/10 13:59:10;;;;;;;1.90;1.80;;;;;;;28.48;33.01;100228.15;129196;1273;107474;-72
2023/07/10 14:02:25;;;;;;;2.60;1.90;;;;;;;28.53;33.11;100231.85;129212;1273;105973;-72
2023/07/10 14:05:31;;;;;;;2.30;2.10;;;;;;;28.64;33.10;100223.80;129649;1273;107495;-72
2023/07/10 14:08:37;;;;;;;3.40;2.00;;;;;;;28.65;33.04;100223.84;129480;1268;107614;-73
2023/07/10 14:11:42;;;;;;;2.60;1.90;;;;;;;28.55;33.30;100217.77;129504;1267;106895;-72
2023/07/10 14:14:48;;;;;;;2.40;2.00;;;;;;;28.46;33.36;100223.15;129402;1273;107286;-72